OEMA/MED METAR and TAF weather

Enter ICAO airport designator
Station Type Date Time Source
OEMA METAR 2024/04/17 18:00 UTC NOAA

OEMA 171800Z 07007KT CAVOK 30/M05 Q1014 NOSIG


Station Type Date Time Source
OEMA Decoded METAR 2024/04/17 18:00 UTC NOAA

Madinah, Saudi Arabia (OEMA) 24-33N 039-42E 636M
Apr 17, 2024 - 02:00 PM EDT / 2024.04.17 1800 UTC
Wind: from the ENE (070 degrees) at 8 MPH (7 KT):0
Visibility: greater than 7 mile(s):0
Temperature: 86 F (30 C)
Dew Point: 23 F (-5 C)
Relative Humidity: 9%
Pressure (altimeter): 29.94 in. Hg (1014 hPa)
ob: OEMA 171800Z 07007KT CAVOK 30/M05 Q1014 NOSIG
cycle: 18

Station Type Date Time Source
OEMA TAF 2024/04/17 18:03 UTC NOAA